Time;durP1;ratioP1;P1;durP2;ratioP2;P2;SDS_P1;SDS_P2;PMS_P1;PMS_P2;Temp;Humidity;BMP_temperature;BMP_pressure;BME280_temperature;BME280_humidity;BME280_pressure;Samples;Min_cycle;Max_cycle;Signal;HPM_P1;HPM_P2
2024/03/18 00:01:51;;;;;;;9.23;2.20;;;;;;;5.27;98.84;100159.83;1693495;83;21098;-74
2024/03/18 00:04:20;;;;;;;8.95;1.72;;;;;;;5.26;98.64;100156.78;1699596;83;21079;-74
2024/03/18 00:06:49;;;;;;;8.63;2.17;;;;;;;5.27;98.77;100157.11;1700359;84;21087;-75
2024/03/18 00:09:17;;;;;;;8.25;2.27;;;;;;;5.29;98.86;100155.59;1703220;83;21032;-74
2024/03/18 00:11:47;;;;;;;7.50;1.85;;;;;;;5.29;98.94;100152.36;1696019;84;21532;-75
2024/03/18 00:14:16;;;;;;;8.25;2.20;;;;;;;5.29;98.99;100157.80;1702048;83;21114;-74
2024/03/18 00:16:45;;;;;;;11.15;2.37;;;;;;;5.28;98.84;100154.73;1733966;82;21059;-74
2024/03/18 00:19:15;;;;;;;11.18;2.27;;;;;;;5.27;98.84;100161.19;1737882;82;21505;-74
2024/03/18 00:21:44;;;;;;;10.15;2.72;;;;;;;5.25;98.92;100151.00;1721985;82;21043;-74
2024/03/18 00:24:14;;;;;;;8.78;2.25;;;;;;;5.24;98.99;100153.38;1696987;84;21099;-74
2024/03/18 00:26:44;;;;;;;10.38;2.55;;;;;;;5.22;98.97;100154.06;1732243;82;21055;-73
2024/03/18 00:29:13;;;;;;;10.23;2.58;;;;;;;5.21;98.98;100150.16;1700092;84;21082;-74
2024/03/18 00:31:44;;;;;;;11.43;2.92;;;;;;;5.21;99.10;100154.23;1731967;82;21087;-73
2024/03/18 00:34:14;;;;;;;8.40;2.60;;;;;;;5.19;99.39;100149.44;1698175;84;21119;-74
2024/03/18 00:36:44;;;;;;;12.73;3.70;;;;;;;5.18;99.47;100156.73;1695555;84;21566;-75
2024/03/18 00:39:13;;;;;;;7.80;2.22;;;;;;;5.17;99.66;100146.89;1697857;84;21550;-74
2024/03/18 00:41:46;;;;;;;7.25;2.30;;;;;;;5.14;99.68;100158.09;1698673;84;21471;-74
2024/03/18 00:44:24;;;;;;;7.08;2.30;;;;;;;5.09;99.75;100150.97;1695925;84;21039;-74
2024/03/18 00:46:54;;;;;;;7.40;2.05;;;;;;;5.05;99.88;100150.97;1699733;84;21020;-75
2024/03/18 00:49:23;;;;;;;5.35;1.98;;;;;;;5.03;100.00;100142.13;1700587;84;21083;-75
2024/03/18 00:51:53;;;;;;;6.17;2.35;;;;;;;5.04;100.00;100143.83;1701160;83;21088;-73
2024/03/18 00:54:23;;;;;;;5.85;2.27;;;;;;;5.00;100.00;100139.25;1700796;83;21466;-74
2024/03/18 00:56:53;;;;;;;8.28;2.55;;;;;;;4.96;100.00;100144.67;1736648;82;21063;-75
2024/03/18 00:59:22;;;;;;;5.60;2.22;;;;;;;4.90;100.00;100148.06;1735597;82;21507;-74
2024/03/18 01:01:52;;;;;;;5.83;2.40;;;;;;;4.87;100.00;100154.33;1696771;83;21107;-73
2024/03/18 01:04:23;;;;;;;7.00;2.30;;;;;;;4.85;100.00;100139.57;1689079;84;21087;-75
2024/03/18 01:06:52;;;;;;;7.53;2.25;;;;;;;4.83;100.00;100145.67;1692548;84;21031;-75
2024/03/18 01:09:20;;;;;;;4.75;2.05;;;;;;;4.81;100.00;100142.28;1702208;84;21058;-76
2024/03/18 01:11:49;;;;;;;6.35;2.17;;;;;;;4.80;100.00;100141.94;1698142;84;21090;-74
2024/03/18 01:14:19;;;;;;;6.22;2.05;;;;;;;4.75;100.00;100135.66;1727296;82;21564;-75
2024/03/18 01:16:48;;;;;;;8.00;1.90;;;;;;;4.70;100.00;100140.73;1738325;82;21086;-74
2024/03/18 01:19:17;;;;;;;6.55;2.08;;;;;;;4.68;100.00;100145.98;1738070;82;21027;-73
2024/03/18 01:21:46;;;;;;;6.92;2.40;;;;;;;4.66;100.00;100148.02;1734408;82;21086;-75
2024/03/18 01:24:16;;;;;;;6.67;2.17;;;;;;;4.62;100.00;100151.56;1738214;82;21039;-75
2024/03/18 01:26:46;;;;;;;8.50;2.00;;;;;;;4.58;100.00;100148.84;1699288;84;21047;-76
2024/03/18 01:29:14;;;;;;;3.85;1.40;;;;;;;4.59;100.00;100142.40;1698012;84;21090;-74
2024/03/18 01:31:44;;;;;;;6.92;1.82;;;;;;;4.60;100.00;100139.18;1699652;84;21060;-75
2024/03/18 01:34:13;;;;;;;6.80;2.25;;;;;;;4.59;100.00;100134.77;1700063;83;21035;-74
2024/03/18 01:36:42;;;;;;;6.53;1.75;;;;;;;4.55;100.00;100136.97;1738161;82;21078;-75
2024/03/18 01:39:17;;;;;;;5.53;1.90;;;;;;;4.53;100.00;100136.25;1729492;82;21051;-73
2024/03/18 01:41:41;;;;;;;6.25;2.12;;;;;;;4.52;100.00;100142.69;1735273;82;21044;-75
2024/03/18 01:44:10;;;;;;;7.33;2.30;;;;;;;4.49;100.00;100137.59;1729111;82;21099;-74
2024/03/18 01:46:38;;;;;;;5.53;2.22;;;;;;;4.49;100.00;100134.88;1731343;82;21059;-74
2024/03/18 01:49:08;;;;;;;5.70;2.20;;;;;;;4.49;100.00;100138.09;1698121;84;21043;-75
2024/03/18 01:51:37;;;;;;;5.17;2.15;;;;;;;4.48;100.00;100135.89;1693890;84;21579;-75
2024/03/18 01:54:08;;;;;;;4.90;2.45;;;;;;;4.46;100.00;100135.21;1695872;83;21076;-74
2024/03/18 01:56:37;;;;;;;8.30;2.10;;;;;;;4.41;99.70;100134.34;1700805;83;21099;-76
2024/03/18 01:59:05;;;;;;;6.58;2.22;;;;;;;4.34;99.75;100137.38;1702558;83;21095;-75
2024/03/18 02:01:36;;;;;;;6.08;2.00;;;;;;;4.34;100.00;100125.68;1669291;82;21087;-75
2024/03/18 02:04:11;;;;;;;8.05;2.20;;;;;;;4.35;100.00;100135.52;1699427;83;21012;-75
2024/03/18 02:06:42;;;;;;;6.40;1.82;;;;;;;4.28;99.87;100129.90;1735292;82;21057;-74
2024/03/18 02:09:12;;;;;;;7.05;1.87;;;;;;;4.26;99.92;100122.94;1736568;82;21027;-75
2024/03/18 02:11:41;;;;;;;6.10;1.92;;;;;;;4.24;100.00;100124.46;1737672;82;21083;-74
2024/03/18 02:14:15;;;;;;;6.55;2.02;;;;;;;4.24;100.00;100130.39;1732131;82;21023;-75
2024/03/18 02:16:45;;;;;;;6.10;2.20;;;;;;;4.24;100.00;100133.10;1699365;84;21043;-75
2024/03/18 02:19:15;;;;;;;6.92;1.80;;;;;;;4.22;100.00;100137.33;1731874;82;21047;-75
2024/03/18 02:21:44;;;;;;;8.00;2.22;;;;;;;4.23;100.00;100125.98;1693671;84;21543;-75
2024/03/18 02:24:14;;;;;;;6.58;1.98;;;;;;;4.25;100.00;100122.59;1699424;84;21059;-75
2024/03/18 02:26:43;;;;;;;7.00;1.87;;;;;;;4.25;100.00;100122.09;1699456;84;21043;-74
2024/03/18 02:29:12;;;;;;;8.00;2.02;;;;;;;4.25;100.00;100128.87;1735857;82;21051;-74
2024/03/18 02:31:41;;;;;;;7.55;2.10;;;;;;;4.24;100.00;100124.97;1732293;82;21039;-75
2024/03/18 02:34:10;;;;;;;6.20;1.80;;;;;;;4.26;100.00;100122.94;1696754;83;21604;-74
2024/03/18 02:36:39;;;;;;;6.65;1.90;;;;;;;4.29;100.00;100123.46;1693331;84;21020;-75
2024/03/18 02:39:11;;;;;;;4.85;1.80;;;;;;;4.30;100.00;100118.89;1699943;84;21139;-76
2024/03/18 02:41:39;;;;;;;4.87;1.40;;;;;;;4.32;100.00;100120.92;1701772;83;21055;-76
2024/03/18 02:44:12;;;;;;;6.28;1.60;;;;;;;4.33;100.00;100121.27;1700177;84;21064;-75
2024/03/18 02:46:40;;;;;;;8.08;2.02;;;;;;;4.31;100.00;100121.44;1693866;83;21103;-75
2024/03/18 02:49:10;;;;;;;5.10;1.45;;;;;;;4.32;100.00;100116.86;1728614;82;21051;-75
2024/03/18 02:51:39;;;;;;;5.70;1.67;;;;;;;4.33;100.00;100119.91;1697783;84;21126;-74
2024/03/18 02:54:08;;;;;;;5.95;1.60;;;;;;;4.34;100.00;100121.10;1700033;84;21068;-74
2024/03/18 02:56:37;;;;;;;5.53;1.50;;;;;;;4.33;100.00;100126.70;1699932;84;21569;-75
2024/03/18 02:59:07;;;;;;;6.33;2.45;;;;;;;4.30;100.00;100131.09;1700202;83;21095;-75
2024/03/18 03:01:37;;;;;;;6.10;1.80;;;;;;;4.28;100.00;100124.98;1705042;84;21071;-75
2024/03/18 03:04:06;;;;;;;4.45;1.75;;;;;;;4.27;100.00;100113.79;1700115;84;21119;-75
2024/03/18 03:06:35;;;;;;;8.55;1.98;;;;;;;4.29;100.00;100118.03;1693202;84;21063;-75
2024/03/18 03:09:04;;;;;;;7.92;2.25;;;;;;;4.29;100.00;100113.97;1696934;84;21032;-73
2024/03/18 03:11:33;;;;;;;6.33;1.65;;;;;;;4.30;100.00;100118.37;1696663;84;21057;-74
2024/03/18 03:14:02;;;;;;;4.83;1.90;;;;;;;4.29;100.00;100116.68;1698945;84;21039;-74
2024/03/18 03:16:31;;;;;;;7.40;1.75;;;;;;;4.29;100.00;100112.61;1698183;83;21090;-74
2024/03/18 03:19:00;;;;;;;7.20;2.42;;;;;;;4.29;100.00;100118.55;1660089;83;21079;-75
2024/03/18 03:21:29;;;;;;;7.10;2.30;;;;;;;4.27;100.00;100114.64;1691394;84;21032;-75
2024/03/18 03:23:58;;;;;;;5.10;1.80;;;;;;;4.26;100.00;100106.16;1696274;84;21032;-74
2024/03/18 03:26:29;;;;;;;8.80;2.98;;;;;;;4.30;100.00;100111.60;1697454;84;21063;-75
2024/03/18 03:28:58;;;;;;;5.75;3.02;;;;;;;4.30;100.00;100106.68;1696291;84;21020;-74
2024/03/18 03:31:28;;;;;;;9.98;3.83;;;;;;;4.30;100.00;100104.82;1700745;84;21138;-75
2024/03/18 03:33:58;;;;;;;9.68;3.80;;;;;;;4.29;100.00;100106.34;1697187;84;21079;-74
2024/03/18 03:36:30;;;;;;;6.30;2.92;;;;;;;4.27;100.00;100104.30;1738227;82;21083;-73
2024/03/18 03:39:00;;;;;;;8.43;3.17;;;;;;;4.29;100.00;100114.47;1737997;82;21050;-72
2024/03/18 03:41:28;;;;;;;7.92;2.60;;;;;;;4.30;100.00;100106.68;1738046;82;21048;-74
2024/03/18 03:43:57;;;;;;;10.63;3.22;;;;;;;4.33;100.00;100105.00;1699550;84;21063;-76
2024/03/18 03:46:26;;;;;;;10.32;2.95;;;;;;;4.34;100.00;100099.91;1698494;84;21816;-75
2024/03/18 03:48:56;;;;;;;18.10;6.33;;;;;;;4.36;100.00;100108.73;1732181;82;20999;-73
2024/03/18 03:51:26;;;;;;;24.27;8.60;;;;;;;4.36;100.00;100108.73;1696632;84;21135;-74
2024/03/18 03:53:57;;;;;;;19.80;6.15;;;;;;;4.37;100.00;100106.36;1730317;82;21051;-74
2024/03/18 03:56:26;;;;;;;19.85;6.97;;;;;;;4.40;100.00;100105.52;1731584;82;21091;-74
2024/03/18 03:58:55;;;;;;;12.23;4.75;;;;;;;4.44;100.00;100107.40;1732208;82;21150;-71
2024/03/18 04:01:24;;;;;;;10.98;3.87;;;;;;;4.44;100.00;100110.97;1738308;82;21043;-75
2024/03/18 04:03:53;;;;;;;17.20;5.03;;;;;;;4.45;100.00;100109.09;1699784;84;21475;-74
2024/03/18 04:06:22;;;;;;;10.65;3.52;;;;;;;4.45;100.00;100103.67;1737893;82;21054;-73
2024/03/18 04:08:51;;;;;;;13.93;3.55;;;;;;;4.45;100.00;100105.03;1738267;82;21035;-73
2024/03/18 04:11:21;;;;;;;15.90;4.72;;;;;;;4.43;100.00;100102.98;1736725;82;21062;-75
2024/03/18 04:13:50;;;;;;;17.42;5.30;;;;;;;4.44;100.00;100100.62;1738380;82;21423;-75
2024/03/18 04:16:20;;;;;;;11.75;4.22;;;;;;;4.48;100.00;100097.06;1700057;84;21039;-73
2024/03/18 04:18:49;;;;;;;7.50;2.83;;;;;;;4.48;100.00;100104.70;1694565;84;21056;-74
2024/03/18 04:21:19;;;;;;;7.80;2.90;;;;;;;4.48;100.00;100102.49;1736033;82;21516;-75
2024/03/18 04:23:48;;;;;;;8.35;2.45;;;;;;;4.47;100.00;100108.42;1735285;82;21542;-76
2024/03/18 04:26:18;;;;;;;8.30;2.15;;;;;;;4.47;100.00;100097.58;1733273;82;21519;-75
2024/03/18 04:28:47;;;;;;;4.40;1.67;;;;;;;4.48;100.00;100103.34;1734338;82;21031;-73
2024/03/18 04:31:15;;;;;;;8.00;2.72;;;;;;;4.49;100.00;100103.69;1739271;82;21071;-75
2024/03/18 04:33:44;;;;;;;9.38;2.80;;;;;;;4.50;100.00;100105.37;1698687;83;21059;-74
2024/03/18 04:36:14;;;;;;;11.95;3.50;;;;;;;4.52;100.00;100104.70;1695693;84;21043;-75
2024/03/18 04:38:43;;;;;;;14.58;3.80;;;;;;;4.53;99.91;100113.70;1732582;82;21078;-76
2024/03/18 04:41:12;;;;;;;10.18;3.40;;;;;;;4.52;99.81;100110.64;1738216;82;21046;-75
2024/03/18 04:43:41;;;;;;;9.15;3.70;;;;;;;4.52;99.57;100113.36;1696949;83;21127;-75
2024/03/18 04:46:10;;;;;;;9.05;3.20;;;;;;;4.50;99.52;100112.16;1695984;84;21448;-75
2024/03/18 04:48:40;;;;;;;12.03;3.05;;;;;;;4.50;99.60;100112.16;1700249;84;21031;-77
2024/03/18 04:51:09;;;;;;;7.37;2.77;;;;;;;4.50;99.44;100120.81;1700305;84;21435;-75
2024/03/18 04:53:38;;;;;;;11.20;2.80;;;;;;;4.48;99.33;100116.91;1698904;84;21518;-74
2024/03/18 04:56:08;;;;;;;10.15;3.12;;;;;;;4.45;99.18;100121.30;1700547;84;21511;-73
2024/03/18 04:58:36;;;;;;;6.37;2.55;;;;;;;4.44;99.14;100127.23;1695052;84;21066;-77
2024/03/18 05:01:07;;;;;;;10.82;2.67;;;;;;;4.45;99.26;100122.66;1697428;84;21557;-76
2024/03/18 05:03:36;;;;;;;8.35;2.70;;;;;;;4.44;99.20;100123.67;1692543;84;21131;-74
2024/03/18 05:06:06;;;;;;;8.43;2.65;;;;;;;4.44;99.21;100126.39;1698851;84;21140;-75
2024/03/18 05:08:36;;;;;;;7.45;2.72;;;;;;;4.43;99.33;100121.47;1696726;84;21154;-74
2024/03/18 05:11:05;;;;;;;7.53;2.65;;;;;;;4.44;99.44;100131.30;1694017;84;21048;-75
2024/03/18 05:13:36;;;;;;;7.67;2.80;;;;;;;4.43;99.41;100130.97;1696511;84;21480;-75
2024/03/18 05:16:06;;;;;;;8.65;2.92;;;;;;;4.43;99.36;100133.67;1699980;83;21071;-76
2024/03/18 05:18:36;;;;;;;8.10;2.55;;;;;;;4.44;99.38;100133.17;1699984;83;21119;-77
2024/03/18 05:21:05;;;;;;;8.95;2.37;;;;;;;4.43;99.14;100132.83;1737830;82;21101;-76
2024/03/18 05:23:34;;;;;;;3.77;2.00;;;;;;;4.39;99.04;100130.11;1736514;82;21483;-74
2024/03/18 05:26:04;;;;;;;7.40;2.60;;;;;;;4.38;99.02;100133.32;1690611;84;21116;-75
2024/03/18 05:28:32;;;;;;;8.33;3.45;;;;;;;4.36;98.86;100131.79;1697970;84;21040;-75
2024/03/18 05:31:03;;;;;;;8.83;3.42;;;;;;;4.35;98.96;100133.66;1696649;84;21580;-74
2024/03/18 05:33:32;;;;;;;7.22;2.77;;;;;;;4.37;99.07;100130.77;1695518;83;21174;-73
2024/03/18 05:36:01;;;;;;;6.45;2.70;;;;;;;4.40;99.32;100138.08;1735702;82;21510;-74
2024/03/18 05:38:30;;;;;;;9.68;2.92;;;;;;;4.44;99.43;100144.02;1735842;82;21079;-74
2024/03/18 05:40:59;;;;;;;7.87;2.85;;;;;;;4.43;99.40;100137.75;1738061;82;21047;-75
2024/03/18 05:43:28;;;;;;;10.78;2.90;;;;;;;4.44;99.53;100137.23;1736105;82;21466;-75
2024/03/18 05:45:57;;;;;;;7.75;2.40;;;;;;;4.47;99.73;100138.27;1733771;82;21090;-75
2024/03/18 05:48:26;;;;;;;8.90;2.70;;;;;;;4.50;99.75;100145.23;1696733;84;21068;-75
2024/03/18 05:50:55;;;;;;;8.63;2.83;;;;;;;4.49;99.63;100143.52;1695961;83;21152;-75
2024/03/18 05:53:25;;;;;;;10.03;3.33;;;;;;;4.48;99.65;100144.54;1696413;84;21558;-74
2024/03/18 05:55:54;;;;;;;8.50;2.80;;;;;;;4.51;99.75;100146.41;1695861;84;21106;-76
2024/03/18 05:58:23;;;;;;;8.00;3.22;;;;;;;4.52;99.78;100144.05;1699052;84;21047;-74
2024/03/18 06:00:53;;;;;;;9.03;3.33;;;;;;;4.55;99.84;100144.22;1731612;82;21134;-74
2024/03/18 06:03:22;;;;;;;9.73;4.00;;;;;;;4.56;99.76;100150.02;1738181;82;21527;-75
2024/03/18 06:05:51;;;;;;;8.83;3.70;;;;;;;4.59;99.87;100136.13;1699938;84;21063;-74
2024/03/18 06:08:22;;;;;;;11.50;3.47;;;;;;;4.60;99.96;100137.31;1688840;84;21507;-76
2024/03/18 06:10:51;;;;;;;10.53;3.72;;;;;;;4.61;100.00;100134.95;1699599;84;21504;-76
2024/03/18 06:13:19;;;;;;;11.40;3.50;;;;;;;4.62;100.00;100136.64;1732163;82;21023;-75
2024/03/18 06:15:50;;;;;;;8.85;2.80;;;;;;;4.63;99.96;100136.98;1738603;82;21074;-75
2024/03/18 06:18:19;;;;;;;8.23;2.90;;;;;;;4.65;99.96;100136.31;1696194;84;21096;-76
2024/03/18 06:20:50;;;;;;;5.40;2.33;;;;;;;4.68;99.91;100141.41;1696732;83;21127;-76
2024/03/18 06:23:33;;;;;;;7.50;2.42;;;;;;;4.72;99.82;100136.49;1699441;83;21055;-76
2024/03/18 06:26:03;;;;;;;7.12;2.50;;;;;;;4.73;99.77;100129.55;1694563;84;21067;-76
2024/03/18 06:28:32;;;;;;;9.70;3.12;;;;;;;4.74;99.67;100131.24;1693668;83;21072;-77
2024/03/18 06:31:01;;;;;;;5.25;2.30;;;;;;;4.78;99.71;100135.31;1731056;82;21056;-76
2024/03/18 06:33:30;;;;;;;9.38;2.70;;;;;;;4.82;99.43;100122.77;1735721;82;21039;-75
2024/03/18 06:36:02;;;;;;;4.67;2.20;;;;;;;4.84;99.16;100128.87;1714884;82;21058;-76
2024/03/18 06:38:31;;;;;;;6.47;2.45;;;;;;;4.88;99.08;100126.17;1737888;82;21067;-76
2024/03/18 06:41:01;;;;;;;7.00;2.62;;;;;;;4.95;99.05;100128.55;1738441;82;21079;-76
2024/03/18 06:43:31;;;;;;;10.23;3.12;;;;;;;4.98;98.87;100121.43;1735146;82;21047;-76
2024/03/18 06:46:00;;;;;;;8.23;3.17;;;;;;;5.02;98.51;100121.44;1736904;82;21019;-76
2024/03/18 06:48:29;;;;;;;11.55;3.90;;;;;;;5.05;98.44;100117.02;1696071;84;21107;-76
2024/03/18 06:50:59;;;;;;;7.87;2.77;;;;;;;5.09;98.54;100119.73;1737886;82;21510;-77
2024/03/18 06:53:28;;;;;;;7.08;2.50;;;;;;;5.15;98.37;100118.21;1737659;82;21051;-76
2024/03/18 06:56:00;;;;;;;10.75;3.12;;;;;;;5.18;98.30;100121.44;1699557;84;21462;-76
2024/03/18 06:58:28;;;;;;;10.50;4.65;;;;;;;5.23;98.17;100117.73;1692223;84;21047;-74
2024/03/18 07:00:57;;;;;;;7.83;3.08;;;;;;;5.27;98.23;100112.30;1696548;84;21096;-76
2024/03/18 07:03:28;;;;;;;9.98;3.17;;;;;;;5.32;98.20;100112.63;1698738;84;21051;-76
2024/03/18 07:06:01;;;;;;;11.03;3.70;;;;;;;5.36;97.98;100112.63;1697989;84;21335;-75
2024/03/18 07:08:29;;;;;;;8.75;3.77;;;;;;;5.39;97.80;100113.64;1693268;84;21043;-76
2024/03/18 07:10:58;;;;;;;7.90;3.55;;;;;;;5.45;97.72;100108.55;1691228;84;21084;-76
2024/03/18 07:13:27;;;;;;;7.53;3.58;;;;;;;5.48;97.64;100113.63;1737031;82;21130;-76
2024/03/18 07:15:58;;;;;;;11.25;4.37;;;;;;;5.53;97.58;100119.41;1736605;82;21095;-76
2024/03/18 07:18:27;;;;;;;8.35;4.22;;;;;;;5.55;97.11;100119.56;1697638;84;21526;-77
2024/03/18 07:20:56;;;;;;;9.78;4.47;;;;;;;5.56;96.61;100117.70;1695546;84;21064;-76
2024/03/18 07:23:25;;;;;;;8.15;4.28;;;;;;;5.59;96.43;100115.48;1734317;82;21190;-77
2024/03/18 07:25:54;;;;;;;10.48;4.92;;;;;;;5.59;96.00;100115.48;1738244;82;21549;-75
2024/03/18 07:28:23;;;;;;;10.15;4.70;;;;;;;5.57;95.77;100110.73;1731723;82;21063;-76
2024/03/18 07:30:51;;;;;;;10.90;5.47;;;;;;;5.59;95.65;100118.20;1734289;82;21087;-76
2024/03/18 07:33:20;;;;;;;11.95;4.95;;;;;;;5.62;95.47;100115.65;1735552;82;21068;-76
2024/03/18 07:35:51;;;;;;;10.70;5.08;;;;;;;5.63;95.36;100116.83;1736868;82;21019;-76
2024/03/18 07:38:20;;;;;;;15.30;5.47;;;;;;;5.64;95.23;100113.61;1695087;84;21079;-77
2024/03/18 07:40:53;;;;;;;11.35;5.15;;;;;;;5.64;95.05;100110.38;1738010;82;20991;-77
2024/03/18 07:43:22;;;;;;;14.98;5.92;;;;;;;5.66;95.19;100108.34;1697578;84;21075;-76
2024/03/18 07:45:51;;;;;;;14.70;6.05;;;;;;;5.72;95.41;100108.15;1737638;82;21070;-74
2024/03/18 07:48:19;;;;;;;13.00;5.78;;;;;;;5.75;95.38;100101.00;1730363;82;21520;-76
2024/03/18 07:50:57;;;;;;;16.00;6.05;;;;;;;5.81;95.47;100108.47;1735372;82;21145;-75
2024/03/18 07:53:26;;;;;;;15.32;5.72;;;;;;;5.86;95.17;100110.18;1736659;82;21031;-74
2024/03/18 07:56:02;;;;;;;12.78;4.60;;;;;;;5.87;95.01;100111.03;1738310;82;21090;-75
2024/03/18 07:58:31;;;;;;;12.90;4.83;;;;;;;5.89;94.92;100107.63;1699738;83;21107;-75
2024/03/18 08:01:00;;;;;;;9.45;4.72;;;;;;;5.89;94.31;100107.14;1698100;83;21063;-76
2024/03/18 08:03:29;;;;;;;14.87;5.62;;;;;;;5.89;94.32;100110.34;1704098;83;21470;-76
2024/03/18 08:06:02;;;;;;;12.30;5.60;;;;;;;5.90;94.22;100106.13;1738601;82;21102;-75
2024/03/18 08:08:31;;;;;;;15.65;5.50;;;;;;;5.93;94.33;100101.70;1701305;84;21086;-76
2024/03/18 08:11:01;;;;;;;11.63;5.15;;;;;;;5.96;94.27;100096.42;1692888;84;21086;-75
2024/03/18 08:13:30;;;;;;;12.63;5.03;;;;;;;5.98;94.66;100095.22;1698923;84;21509;-76
2024/03/18 08:15:59;;;;;;;14.65;5.03;;;;;;;5.99;94.44;100096.06;1698659;84;21275;-75
2024/03/18 08:18:29;;;;;;;13.55;6.20;;;;;;;6.00;94.47;100095.05;1696476;84;21056;-75
2024/03/18 08:20:58;;;;;;;16.35;5.35;;;;;;;6.04;94.55;100097.23;1697295;84;21087;-74
2024/03/18 08:23:27;;;;;;;9.93;4.67;;;;;;;6.06;94.59;100094.84;1743252;82;21058;-76
2024/03/18 08:25:56;;;;;;;13.65;4.97;;;;;;;6.10;94.69;100100.27;1697507;84;21107;-75
2024/03/18 08:28:25;;;;;;;7.45;4.25;;;;;;;6.14;94.70;100097.53;1696200;84;21495;-75
2024/03/18 08:30:56;;;;;;;8.80;4.00;;;;;;;6.18;94.72;100100.23;1697169;84;21068;-75
2024/03/18 08:33:25;;;;;;;10.48;4.55;;;;;;;6.18;94.42;100102.45;1676372;84;21074;-75
2024/03/18 08:35:56;;;;;;;8.40;2.83;;;;;;;6.18;94.47;100097.00;1694747;84;21149;-77
2024/03/18 08:38:25;;;;;;;7.47;2.77;;;;;;;6.22;94.38;100097.50;1691592;84;21056;-75
2024/03/18 08:40:54;;;;;;;8.23;2.83;;;;;;;6.23;94.02;100097.83;1735994;82;21058;-75
2024/03/18 08:43:24;;;;;;;7.80;2.72;;;;;;;6.23;93.79;100095.11;1738002;82;21510;-75
2024/03/18 08:45:57;;;;;;;5.83;2.50;;;;;;;6.21;93.35;100094.44;1732259;82;21047;-76
2024/03/18 08:48:27;;;;;;;11.25;2.42;;;;;;;6.21;93.07;100099.88;1738061;82;21265;-75
2024/03/18 08:50:56;;;;;;;6.35;2.10;;;;;;;6.20;92.84;100096.83;1696076;84;21036;-75
2024/03/18 08:53:25;;;;;;;7.78;2.40;;;;;;;6.17;92.58;100097.18;1732238;82;21094;-75
2024/03/18 08:55:55;;;;;;;8.80;3.10;;;;;;;6.16;92.43;100098.20;1696077;84;21511;-76
2024/03/18 08:58:24;;;;;;;7.65;2.70;;;;;;;6.16;92.12;100102.29;1679363;84;21075;-75
2024/03/18 09:00:55;;;;;;;8.43;3.30;;;;;;;6.12;92.03;100099.07;1695652;84;21512;-75
2024/03/18 09:03:24;;;;;;;11.03;3.42;;;;;;;6.12;91.98;100099.58;1699886;84;21074;-75
2024/03/18 09:05:54;;;;;;;7.33;2.83;;;;;;;6.10;92.15;100096.19;1724461;82;21106;-75
2024/03/18 09:08:25;;;;;;;9.45;2.60;;;;;;;6.12;92.53;100098.22;1697767;84;21063;-73
2024/03/18 09:10:54;;;;;;;6.95;2.62;;;;;;;6.15;92.69;100095.16;1698395;83;21036;-74
2024/03/18 09:13:24;;;;;;;8.28;2.50;;;;;;;6.15;92.72;100093.28;1695582;84;21032;-75
2024/03/18 09:15:53;;;;;;;14.93;4.78;;;;;;;6.16;92.59;100096.33;1695389;85;20996;-73
2024/03/18 09:18:23;;;;;;;6.92;2.52;;;;;;;6.17;92.57;100096.67;1697308;84;21064;-74
2024/03/18 09:20:55;;;;;;;8.45;2.60;;;;;;;6.16;92.56;100098.20;1680099;84;21179;-73
2024/03/18 09:23:23;;;;;;;12.03;3.75;;;;;;;6.15;92.57;100091.92;1708087;83;21070;-73
2024/03/18 09:25:52;;;;;;;15.48;6.50;;;;;;;6.17;92.66;100092.59;1730170;82;21032;-74
2024/03/18 09:28:21;;;;;;;7.17;2.30;;;;;;;6.17;93.14;100094.46;1731707;82;21039;-77
2024/03/18 09:31:03;;;;;;;7.87;2.72;;;;;;;6.20;93.16;100090.03;1739253;82;21164;-75
2024/03/18 09:33:32;;;;;;;6.22;2.65;;;;;;;6.18;93.23;100090.72;1740924;82;21063;-76
2024/03/18 09:36:00;;;;;;;10.45;2.30;;;;;;;6.16;93.61;100090.89;1739641;82;21039;-77
2024/03/18 09:38:30;;;;;;;8.65;2.60;;;;;;;6.12;93.81;100087.34;1736489;82;21372;-79
2024/03/18 09:41:04;;;;;;;8.68;2.62;;;;;;;6.12;94.43;100094.14;1735517;82;21357;-77
2024/03/18 09:43:35;;;;;;;8.73;2.58;;;;;;;6.10;94.63;100090.75;1738192;82;21036;-77
2024/03/18 09:46:05;;;;;;;9.50;3.52;;;;;;;6.09;95.11;100089.05;1736794;82;21501;-78
2024/03/18 09:48:34;;;;;;;10.50;3.05;;;;;;;6.07;95.57;100083.80;1732449;82;21047;-78
2024/03/18 09:51:04;;;;;;;6.80;2.55;;;;;;;6.08;96.18;100085.48;1737701;82;21042;-79
2024/03/18 09:53:32;;;;;;;7.95;2.80;;;;;;;6.08;96.58;100080.56;1731616;81;21044;-78
2024/03/18 09:56:02;;;;;;;8.98;3.08;;;;;;;6.06;96.86;100073.94;1730451;82;21066;-77
2024/03/18 09:58:32;;;;;;;11.28;2.98;;;;;;;6.04;97.23;100075.47;1716157;82;21105;-77
2024/03/18 10:01:01;;;;;;;8.48;3.62;;;;;;;6.04;97.64;100077.34;1717235;82;21098;-77
2024/03/18 10:03:31;;;;;;;9.20;3.60;;;;;;;6.04;97.99;100073.27;1711736;82;21098;-77
2024/03/18 10:06:00;;;;;;;7.17;2.90;;;;;;;6.03;98.32;100070.22;1717779;82;21482;-76
2024/03/18 10:08:35;;;;;;;12.82;3.58;;;;;;;6.03;98.75;100071.06;1678020;82;21492;-77
2024/03/18 10:11:03;;;;;;;7.45;3.40;;;;;;;6.02;99.12;100067.16;1730760;82;21498;-79
2024/03/18 10:13:32;;;;;;;15.40;3.52;;;;;;;6.02;99.39;100069.37;1734350;82;21043;-77
2024/03/18 10:16:02;;;;;;;9.25;2.67;;;;;;;6.01;99.67;100067.67;1737566;82;21082;-76
2024/03/18 10:18:32;;;;;;;7.97;2.80;;;;;;;5.99;99.44;100060.20;1735573;82;21106;-78
2024/03/18 10:21:02;;;;;;;8.10;2.80;;;;;;;5.93;99.20;100059.55;1735824;82;21078;-77
2024/03/18 10:23:31;;;;;;;10.55;3.20;;;;;;;5.89;99.05;100062.28;1738004;82;21047;-76
2024/03/18 10:26:02;;;;;;;6.08;2.58;;;;;;;5.87;99.04;100059.38;1728553;82;21514;-76
2024/03/18 10:28:32;;;;;;;11.97;4.85;;;;;;;5.85;98.90;100061.38;1702268;82;21098;-76
2024/03/18 10:31:01;;;;;;;8.88;3.08;;;;;;;5.82;99.06;100057.66;1710060;83;21059;-76
2024/03/18 10:33:31;;;;;;;7.65;3.17;;;;;;;5.84;99.29;100049.66;1690699;83;21471;-77
2024/03/18 10:35:59;;;;;;;8.13;3.15;;;;;;;5.86;99.58;100051.73;1720271;83;21087;-77
2024/03/18 10:38:30;;;;;;;9.93;3.92;;;;;;;5.87;99.70;100050.70;1721035;82;21126;-75
2024/03/18 10:40:59;;;;;;;13.30;4.12;;;;;;;5.87;99.77;100052.06;1709945;83;21040;-75
2024/03/18 10:43:36;;;;;;;10.68;5.33;;;;;;;5.90;100.00;100045.45;1707003;83;21545;-75
2024/03/18 10:46:09;;;;;;;10.10;4.05;;;;;;;5.90;100.00;100046.30;1695792;82;21500;-76
2024/03/18 10:48:42;;;;;;;9.23;3.80;;;;;;;5.90;100.00;100039.51;1675382;84;21470;-77
2024/03/18 10:51:12;;;;;;;7.20;2.52;;;;;;;5.91;100.00;100041.20;1712113;83;21031;-75
2024/03/18 10:53:42;;;;;;;11.40;3.70;;;;;;;5.90;100.00;100037.30;1716963;83;21094;-76
2024/03/18 10:56:14;;;;;;;10.38;3.67;;;;;;;5.84;100.00;100034.71;1708701;83;21079;-73
2024/03/18 10:58:45;;;;;;;5.95;2.30;;;;;;;5.86;100.00;100031.34;1716057;82;21030;-75
2024/03/18 11:01:14;;;;;;;9.40;2.70;;;;;;;5.88;100.00;100032.01;1730691;82;21426;-74
2024/03/18 11:03:48;;;;;;;6.67;2.60;;;;;;;5.88;100.00;100032.52;1715194;82;21524;-75
2024/03/18 11:06:18;;;;;;;9.33;3.00;;;;;;;5.86;100.00;100036.77;1738592;82;21101;-75
2024/03/18 11:08:55;;;;;;;6.70;2.65;;;;;;;5.84;100.00;100033.34;1734323;82;21033;-74
2024/03/18 11:11:21;;;;;;;9.15;3.40;;;;;;;5.87;100.00;100022.67;1737838;82;21105;-75
2024/03/18 11:13:53;;;;;;;10.98;3.10;;;;;;;5.87;100.00;100022.16;1732378;81;21057;-76
2024/03/18 11:16:22;;;;;;;11.18;3.25;;;;;;;5.84;99.55;100023.84;1733233;82;22385;-75
2024/03/18 11:18:51;;;;;;;11.08;2.95;;;;;;;5.80;99.23;100012.98;1712130;82;21054;-76
2024/03/18 11:21:22;;;;;;;9.28;3.27;;;;;;;5.75;98.71;100019.45;1730195;82;21042;-75
2024/03/18 11:24:00;;;;;;;9.33;3.72;;;;;;;5.74;98.95;100019.13;1730466;82;21196;-73
2024/03/18 11:26:29;;;;;;;;;;;;;;;5.77;99.21;100016.56;1732983;81;21093;-76
2024/03/18 11:29:04;;;;;;;7.47;3.33;;;;;;;5.78;99.39;100014.18;1732114;82;20159;-75
2024/03/18 11:31:35;;;;;;;9.63;4.45;;;;;;;5.67;98.65;100014.05;1730479;82;21540;-76
2024/03/18 11:34:08;;;;;;;11.30;4.33;;;;;;;5.59;98.84;100010.01;1740510;81;21057;-76
2024/03/18 11:36:40;;;;;;;10.72;5.15;;;;;;;5.56;99.25;100007.64;1729708;82;21081;-75
2024/03/18 11:39:12;;;;;;;12.43;5.33;;;;;;;5.55;99.65;100008.66;1736913;82;21086;-77
2024/03/18 11:41:40;;;;;;;9.98;4.30;;;;;;;5.53;99.83;100009.35;1717983;82;21454;-76